sensor_id;sensor_type;location;lat;lon;timestamp;P1;durP1;ratioP1;P2;durP2;ratioP2
73382;SDS011;61600;48.126;11.542;2023-04-23T00:02:09;4.50;;;2.10;;
73382;SDS011;61600;48.126;11.542;2023-04-23T00:07:03;4.82;;;2.08;;
73382;SDS011;61600;48.126;11.542;2023-04-23T00:09:29;4.25;;;1.80;;
73382;SDS011;61600;48.126;11.542;2023-04-23T00:11:57;4.60;;;1.98;;
73382;SDS011;61600;48.126;11.542;2023-04-23T00:14:23;3.63;;;1.88;;
73382;SDS011;61600;48.126;11.542;2023-04-23T00:16:50;4.22;;;2.10;;
73382;SDS011;61600;48.126;11.542;2023-04-23T00:19:17;4.38;;;2.20;;
73382;SDS011;61600;48.126;11.542;2023-04-23T00:21:42;5.90;;;2.13;;
73382;SDS011;61600;48.126;11.542;2023-04-23T00:24:09;4.18;;;2.10;;
73382;SDS011;61600;48.126;11.542;2023-04-23T00:26:35;3.30;;;1.80;;
73382;SDS011;61600;48.126;11.542;2023-04-23T00:29:00;4.93;;;2.05;;
73382;SDS011;61600;48.126;11.542;2023-04-23T00:31:26;4.25;;;1.98;;
73382;SDS011;61600;48.126;11.542;2023-04-23T00:33:52;4.22;;;2.10;;
73382;SDS011;61600;48.126;11.542;2023-04-23T00:36:18;5.28;;;2.05;;
73382;SDS011;61600;48.126;11.542;2023-04-23T00:38:44;4.93;;;1.92;;
73382;SDS011;61600;48.126;11.542;2023-04-23T00:41:10;4.30;;;2.00;;
73382;SDS011;61600;48.126;11.542;2023-04-23T00:43:36;7.60;;;1.98;;
73382;SDS011;61600;48.126;11.542;2023-04-23T00:46:02;6.25;;;2.10;;
73382;SDS011;61600;48.126;11.542;2023-04-23T00:48:28;3.63;;;2.03;;
73382;SDS011;61600;48.126;11.542;2023-04-23T00:50:57;4.03;;;2.03;;
73382;SDS011;61600;48.126;11.542;2023-04-23T00:53:25;5.03;;;2.53;;
73382;SDS011;61600;48.126;11.542;2023-04-23T00:55:51;4.35;;;2.08;;
73382;SDS011;61600;48.126;11.542;2023-04-23T00:58:17;4.53;;;2.00;;
73382;SDS011;61600;48.126;11.542;2023-04-23T01:00:44;3.63;;;1.88;;
73382;SDS011;61600;48.126;11.542;2023-04-23T01:03:12;4.50;;;2.00;;
73382;SDS011;61600;48.126;11.542;2023-04-23T01:05:39;3.15;;;1.90;;
73382;SDS011;61600;48.126;11.542;2023-04-23T01:08:06;5.10;;;2.00;;
73382;SDS011;61600;48.126;11.542;2023-04-23T01:10:34;3.75;;;1.95;;
73382;SDS011;61600;48.126;11.542;2023-04-23T01:13:00;5.00;;;2.05;;
73382;SDS011;61600;48.126;11.542;2023-04-23T01:15:26;4.10;;;2.22;;
73382;SDS011;61600;48.126;11.542;2023-04-23T01:17:51;3.97;;;2.10;;
73382;SDS011;61600;48.126;11.542;2023-04-23T01:20:17;4.07;;;1.77;;
73382;SDS011;61600;48.126;11.542;2023-04-23T01:22:43;4.57;;;1.75;;
73382;SDS011;61600;48.126;11.542;2023-04-23T01:25:10;4.28;;;2.42;;
73382;SDS011;61600;48.126;11.542;2023-04-23T01:27:36;3.75;;;1.80;;
73382;SDS011;61600;48.126;11.542;2023-04-23T01:32:30;3.47;;;2.20;;
73382;SDS011;61600;48.126;11.542;2023-04-23T01:37:22;5.72;;;2.10;;
73382;SDS011;61600;48.126;11.542;2023-04-23T01:39:49;4.13;;;1.98;;
73382;SDS011;61600;48.126;11.542;2023-04-23T01:42:17;3.78;;;2.22;;
73382;SDS011;61600;48.126;11.542;2023-04-23T01:44:43;4.68;;;2.08;;
73382;SDS011;61600;48.126;11.542;2023-04-23T01:47:09;7.20;;;2.20;;
73382;SDS011;61600;48.126;11.542;2023-04-23T01:49:35;4.25;;;1.83;;
73382;SDS011;61600;48.126;11.542;2023-04-23T01:52:01;6.55;;;2.22;;
73382;SDS011;61600;48.126;11.542;2023-04-23T01:54:28;6.65;;;2.08;;
73382;SDS011;61600;48.126;11.542;2023-04-23T01:56:53;4.05;;;1.63;;
73382;SDS011;61600;48.126;11.542;2023-04-23T01:59:20;4.20;;;2.00;;
73382;SDS011;61600;48.126;11.542;2023-04-23T02:01:49;4.47;;;1.90;;
73382;SDS011;61600;48.126;11.542;2023-04-23T02:04:15;6.50;;;2.42;;
73382;SDS011;61600;48.126;11.542;2023-04-23T02:06:42;4.28;;;2.20;;
73382;SDS011;61600;48.126;11.542;2023-04-23T02:09:11;4.15;;;2.30;;
73382;SDS011;61600;48.126;11.542;2023-04-23T02:11:37;5.07;;;2.20;;
73382;SDS011;61600;48.126;11.542;2023-04-23T02:14:03;4.57;;;2.17;;
73382;SDS011;61600;48.126;11.542;2023-04-23T02:16:30;5.45;;;2.35;;
73382;SDS011;61600;48.126;11.542;2023-04-23T02:18:59;4.82;;;2.25;;
73382;SDS011;61600;48.126;11.542;2023-04-23T02:21:26;6.45;;;2.30;;
73382;SDS011;61600;48.126;11.542;2023-04-23T02:23:52;13.20;;;3.53;;
73382;SDS011;61600;48.126;11.542;2023-04-23T02:26:18;4.32;;;2.58;;
73382;SDS011;61600;48.126;11.542;2023-04-23T02:28:44;4.05;;;2.15;;
73382;SDS011;61600;48.126;11.542;2023-04-23T02:36:01;5.63;;;1.70;;
73382;SDS011;61600;48.126;11.542;2023-04-23T02:38:28;5.15;;;2.08;;
73382;SDS011;61600;48.126;11.542;2023-04-23T02:40:54;5.63;;;2.08;;
73382;SDS011;61600;48.126;11.542;2023-04-23T02:43:19;5.70;;;2.22;;
73382;SDS011;61600;48.126;11.542;2023-04-23T02:45:45;6.80;;;2.10;;
73382;SDS011;61600;48.126;11.542;2023-04-23T02:48:11;4.40;;;2.38;;
73382;SDS011;61600;48.126;11.542;2023-04-23T02:50:37;5.53;;;2.28;;
73382;SDS011;61600;48.126;11.542;2023-04-23T02:53:06;3.95;;;1.90;;
73382;SDS011;61600;48.126;11.542;2023-04-23T02:55:32;2.92;;;1.80;;
73382;SDS011;61600;48.126;11.542;2023-04-23T02:57:58;2.72;;;1.80;;
73382;SDS011;61600;48.126;11.542;2023-04-23T03:00:27;3.20;;;2.28;;
73382;SDS011;61600;48.126;11.542;2023-04-23T03:02:53;3.55;;;2.08;;
73382;SDS011;61600;48.126;11.542;2023-04-23T03:05:19;5.28;;;2.20;;
73382;SDS011;61600;48.126;11.542;2023-04-23T03:07:44;6.03;;;2.50;;
73382;SDS011;61600;48.126;11.542;2023-04-23T03:10:10;3.63;;;1.92;;
73382;SDS011;61600;48.126;11.542;2023-04-23T03:12:36;4.85;;;2.08;;
73382;SDS011;61600;48.126;11.542;2023-04-23T03:15:02;3.83;;;2.03;;
73382;SDS011;61600;48.126;11.542;2023-04-23T03:17:28;4.22;;;1.90;;
73382;SDS011;61600;48.126;11.542;2023-04-23T03:19:54;3.80;;;2.10;;
73382;SDS011;61600;48.126;11.542;2023-04-23T03:22:20;4.15;;;2.38;;
73382;SDS011;61600;48.126;11.542;2023-04-23T03:24:46;4.90;;;2.30;;
73382;SDS011;61600;48.126;11.542;2023-04-23T03:27:11;4.82;;;2.35;;
73382;SDS011;61600;48.126;11.542;2023-04-23T03:29:37;3.88;;;2.05;;
73382;SDS011;61600;48.126;11.542;2023-04-23T03:32:03;4.18;;;2.00;;
73382;SDS011;61600;48.126;11.542;2023-04-23T03:34:29;4.07;;;2.10;;
73382;SDS011;61600;48.126;11.542;2023-04-23T03:36:55;4.28;;;2.63;;
73382;SDS011;61600;48.126;11.542;2023-04-23T03:39:20;4.60;;;2.20;;
73382;SDS011;61600;48.126;11.542;2023-04-23T03:41:46;4.35;;;2.20;;
73382;SDS011;61600;48.126;11.542;2023-04-23T03:44:11;3.53;;;2.03;;
73382;SDS011;61600;48.126;11.542;2023-04-23T03:46:37;3.78;;;1.90;;
73382;SDS011;61600;48.126;11.542;2023-04-23T03:49:03;4.50;;;2.45;;
73382;SDS011;61600;48.126;11.542;2023-04-23T03:51:29;3.53;;;2.05;;
73382;SDS011;61600;48.126;11.542;2023-04-23T03:53:55;4.68;;;1.90;;
73382;SDS011;61600;48.126;11.542;2023-04-23T03:56:21;5.57;;;2.38;;
73382;SDS011;61600;48.126;11.542;2023-04-23T03:58:47;3.60;;;2.05;;
73382;SDS011;61600;48.126;11.542;2023-04-23T04:01:12;5.32;;;2.42;;
73382;SDS011;61600;48.126;11.542;2023-04-23T04:03:38;3.88;;;1.90;;
73382;SDS011;61600;48.126;11.542;2023-04-23T04:06:04;4.60;;;2.00;;
73382;SDS011;61600;48.126;11.542;2023-04-23T04:08:30;3.30;;;2.00;;
73382;SDS011;61600;48.126;11.542;2023-04-23T04:10:55;3.40;;;1.95;;
73382;SDS011;61600;48.126;11.542;2023-04-23T04:13:21;5.40;;;2.13;;
73382;SDS011;61600;48.126;11.542;2023-04-23T04:15:47;4.00;;;2.25;;
73382;SDS011;61600;48.126;11.542;2023-04-23T04:18:13;3.55;;;2.00;;
73382;SDS011;61600;48.126;11.542;2023-04-23T04:20:38;4.53;;;2.10;;
73382;SDS011;61600;48.126;11.542;2023-04-23T04:23:07;6.80;;;3.33;;
73382;SDS011;61600;48.126;11.542;2023-04-23T04:25:33;4.30;;;2.13;;
73382;SDS011;61600;48.126;11.542;2023-04-23T04:28:04;3.92;;;2.13;;
73382;SDS011;61600;48.126;11.542;2023-04-23T04:30:32;5.07;;;2.40;;
73382;SDS011;61600;48.126;11.542;2023-04-23T04:32:58;3.22;;;2.22;;
73382;SDS011;61600;48.126;11.542;2023-04-23T04:35:25;4.75;;;2.28;;
73382;SDS011;61600;48.126;11.542;2023-04-23T04:37:51;4.13;;;2.55;;
73382;SDS011;61600;48.126;11.542;2023-04-23T04:40:18;3.58;;;2.20;;
73382;SDS011;61600;48.126;11.542;2023-04-23T04:42:44;3.45;;;2.33;;
73382;SDS011;61600;48.126;11.542;2023-04-23T04:45:10;4.30;;;2.25;;
73382;SDS011;61600;48.126;11.542;2023-04-23T04:47:36;6.53;;;2.75;;
73382;SDS011;61600;48.126;11.542;2023-04-23T04:50:03;4.85;;;2.45;;
73382;SDS011;61600;48.126;11.542;2023-04-23T04:52:29;5.28;;;2.50;;
73382;SDS011;61600;48.126;11.542;2023-04-23T04:54:55;6.50;;;3.00;;
73382;SDS011;61600;48.126;11.542;2023-04-23T04:57:21;4.50;;;2.50;;
73382;SDS011;61600;48.126;11.542;2023-04-23T04:59:48;5.78;;;2.83;;
73382;SDS011;61600;48.126;11.542;2023-04-23T05:02:14;4.13;;;2.70;;
73382;SDS011;61600;48.126;11.542;2023-04-23T05:04:40;5.18;;;3.03;;
73382;SDS011;61600;48.126;11.542;2023-04-23T05:07:06;4.85;;;2.83;;
73382;SDS011;61600;48.126;11.542;2023-04-23T05:09:32;6.07;;;2.88;;
73382;SDS011;61600;48.126;11.542;2023-04-23T05:11:58;4.13;;;2.78;;
73382;SDS011;61600;48.126;11.542;2023-04-23T05:14:24;8.25;;;3.00;;
73382;SDS011;61600;48.126;11.542;2023-04-23T05:16:51;4.80;;;2.70;;
73382;SDS011;61600;48.126;11.542;2023-04-23T05:19:16;6.03;;;2.78;;
73382;SDS011;61600;48.126;11.542;2023-04-23T05:21:42;4.25;;;2.80;;
73382;SDS011;61600;48.126;11.542;2023-04-23T05:24:08;5.25;;;2.80;;
73382;SDS011;61600;48.126;11.542;2023-04-23T05:26:33;6.68;;;3.03;;
73382;SDS011;61600;48.126;11.542;2023-04-23T05:28:59;4.20;;;3.00;;
73382;SDS011;61600;48.126;11.542;2023-04-23T05:31:25;6.40;;;3.00;;
73382;SDS011;61600;48.126;11.542;2023-04-23T05:33:51;9.32;;;3.20;;
73382;SDS011;61600;48.126;11.542;2023-04-23T05:36:17;4.63;;;2.88;;
73382;SDS011;61600;48.126;11.542;2023-04-23T05:38:43;6.57;;;3.05;;
73382;SDS011;61600;48.126;11.542;2023-04-23T05:41:09;5.80;;;3.40;;
73382;SDS011;61600;48.126;11.542;2023-04-23T05:43:34;5.38;;;2.72;;
73382;SDS011;61600;48.126;11.542;2023-04-23T05:46:00;5.72;;;3.00;;
73382;SDS011;61600;48.126;11.542;2023-04-23T05:48:28;5.18;;;3.00;;
73382;SDS011;61600;48.126;11.542;2023-04-23T05:50:57;4.68;;;3.03;;
73382;SDS011;61600;48.126;11.542;2023-04-23T05:53:23;5.22;;;2.67;;
73382;SDS011;61600;48.126;11.542;2023-04-23T05:55:50;5.95;;;2.95;;
73382;SDS011;61600;48.126;11.542;2023-04-23T05:58:16;5.75;;;3.10;;
73382;SDS011;61600;48.126;11.542;2023-04-23T06:00:43;5.70;;;3.42;;
73382;SDS011;61600;48.126;11.542;2023-04-23T06:03:09;4.90;;;2.95;;
73382;SDS011;61600;48.126;11.542;2023-04-23T06:05:35;6.57;;;3.30;;
73382;SDS011;61600;48.126;11.542;2023-04-23T06:08:02;6.20;;;3.25;;
73382;SDS011;61600;48.126;11.542;2023-04-23T06:10:29;6.95;;;3.65;;
73382;SDS011;61600;48.126;11.542;2023-04-23T06:12:55;6.15;;;3.20;;
73382;SDS011;61600;48.126;11.542;2023-04-23T06:15:21;5.90;;;2.88;;
73382;SDS011;61600;48.126;11.542;2023-04-23T06:17:51;8.10;;;3.92;;
73382;SDS011;61600;48.126;11.542;2023-04-23T06:20:18;7.82;;;4.05;;
73382;SDS011;61600;48.126;11.542;2023-04-23T06:22:44;8.07;;;4.43;;
73382;SDS011;61600;48.126;11.542;2023-04-23T06:25:10;6.57;;;3.50;;
73382;SDS011;61600;48.126;11.542;2023-04-23T06:27:36;5.07;;;3.08;;
73382;SDS011;61600;48.126;11.542;2023-04-23T06:30:02;6.35;;;3.58;;
73382;SDS011;61600;48.126;11.542;2023-04-23T06:32:28;6.05;;;3.67;;
73382;SDS011;61600;48.126;11.542;2023-04-23T06:34:54;8.57;;;4.00;;
73382;SDS011;61600;48.126;11.542;2023-04-23T06:37:19;5.30;;;3.30;;
73382;SDS011;61600;48.126;11.542;2023-04-23T06:39:45;7.32;;;4.75;;
73382;SDS011;61600;48.126;11.542;2023-04-23T06:42:11;7.82;;;4.50;;
73382;SDS011;61600;48.126;11.542;2023-04-23T06:44:37;6.90;;;4.13;;
73382;SDS011;61600;48.126;11.542;2023-04-23T06:47:03;6.03;;;3.63;;
73382;SDS011;61600;48.126;11.542;2023-04-23T06:49:29;7.88;;;4.05;;
73382;SDS011;61600;48.126;11.542;2023-04-23T06:51:55;6.00;;;3.63;;
73382;SDS011;61600;48.126;11.542;2023-04-23T06:54:21;6.28;;;3.75;;
73382;SDS011;61600;48.126;11.542;2023-04-23T06:56:47;5.80;;;3.42;;
73382;SDS011;61600;48.126;11.542;2023-04-23T06:59:12;8.20;;;3.70;;
73382;SDS011;61600;48.126;11.542;2023-04-23T07:01:38;7.55;;;3.70;;
73382;SDS011;61600;48.126;11.542;2023-04-23T07:04:04;5.47;;;3.60;;
73382;SDS011;61600;48.126;11.542;2023-04-23T07:06:30;8.73;;;3.97;;
73382;SDS011;61600;48.126;11.542;2023-04-23T07:08:58;7.35;;;3.53;;
73382;SDS011;61600;48.126;11.542;2023-04-23T07:11:24;4.97;;;3.03;;
73382;SDS011;61600;48.126;11.542;2023-04-23T07:13:50;5.70;;;3.53;;
73382;SDS011;61600;48.126;11.542;2023-04-23T07:16:16;6.57;;;3.63;;
73382;SDS011;61600;48.126;11.542;2023-04-23T07:18:41;5.07;;;2.90;;
73382;SDS011;61600;48.126;11.542;2023-04-23T07:21:07;7.63;;;4.47;;
73382;SDS011;61600;48.126;11.542;2023-04-23T07:23:33;6.72;;;3.45;;
73382;SDS011;61600;48.126;11.542;2023-04-23T07:25:59;5.05;;;3.33;;
73382;SDS011;61600;48.126;11.542;2023-04-23T07:28:24;5.00;;;2.92;;
73382;SDS011;61600;48.126;11.542;2023-04-23T07:30:50;4.95;;;2.88;;
73382;SDS011;61600;48.126;11.542;2023-04-23T07:33:16;7.70;;;3.83;;
73382;SDS011;61600;48.126;11.542;2023-04-23T07:35:42;7.78;;;3.53;;
73382;SDS011;61600;48.126;11.542;2023-04-23T07:38:08;6.18;;;3.60;;
73382;SDS011;61600;48.126;11.542;2023-04-23T07:40:34;5.78;;;3.40;;
73382;SDS011;61600;48.126;11.542;2023-04-23T07:43:01;5.88;;;3.22;;
73382;SDS011;61600;48.126;11.542;2023-04-23T07:45:27;4.63;;;3.05;;
73382;SDS011;61600;48.126;11.542;2023-04-23T07:47:52;7.43;;;3.30;;
73382;SDS011;61600;48.126;11.542;2023-04-23T07:50:18;6.47;;;3.10;;
73382;SDS011;61600;48.126;11.542;2023-04-23T07:52:44;4.80;;;3.10;;
73382;SDS011;61600;48.126;11.542;2023-04-23T07:55:10;5.68;;;3.33;;
73382;SDS011;61600;48.126;11.542;2023-04-23T07:57:36;5.07;;;2.80;;
73382;SDS011;61600;48.126;11.542;2023-04-23T08:00:02;4.43;;;2.60;;
73382;SDS011;61600;48.126;11.542;2023-04-23T08:02:29;4.05;;;2.75;;
73382;SDS011;61600;48.126;11.542;2023-04-23T08:04:54;4.05;;;2.20;;
73382;SDS011;61600;48.126;11.542;2023-04-23T08:07:20;4.07;;;2.38;;
73382;SDS011;61600;48.126;11.542;2023-04-23T08:09:46;3.58;;;2.45;;
73382;SDS011;61600;48.126;11.542;2023-04-23T08:12:12;4.15;;;2.38;;
73382;SDS011;61600;48.126;11.542;2023-04-23T08:14:37;4.43;;;2.60;;
73382;SDS011;61600;48.126;11.542;2023-04-23T08:17:03;4.43;;;2.50;;
73382;SDS011;61600;48.126;11.542;2023-04-23T08:19:29;4.68;;;2.60;;
73382;SDS011;61600;48.126;11.542;2023-04-23T08:21:58;4.88;;;2.83;;
73382;SDS011;61600;48.126;11.542;2023-04-23T08:24:24;4.88;;;2.35;;
73382;SDS011;61600;48.126;11.542;2023-04-23T08:26:50;3.85;;;2.47;;
73382;SDS011;61600;48.126;11.542;2023-04-23T08:29:16;4.07;;;2.35;;
73382;SDS011;61600;48.126;11.542;2023-04-23T08:31:42;7.25;;;2.70;;
73382;SDS011;61600;48.126;11.542;2023-04-23T08:34:08;3.65;;;2.30;;
73382;SDS011;61600;48.126;11.542;2023-04-23T08:36:34;4.95;;;2.63;;
73382;SDS011;61600;48.126;11.542;2023-04-23T08:39:00;4.53;;;2.20;;
73382;SDS011;61600;48.126;11.542;2023-04-23T08:41:26;5.18;;;2.65;;
73382;SDS011;61600;48.126;11.542;2023-04-23T08:46:42;4.78;;;2.50;;
73382;SDS011;61600;48.126;11.542;2023-04-23T08:49:11;5.15;;;2.72;;
73382;SDS011;61600;48.126;11.542;2023-04-23T08:51:41;5.35;;;2.67;;
73382;SDS011;61600;48.126;11.542;2023-04-23T08:54:15;4.78;;;2.75;;
73382;SDS011;61600;48.126;11.542;2023-04-23T08:56:45;4.70;;;3.10;;
73382;SDS011;61600;48.126;11.542;2023-04-23T08:59:13;4.70;;;3.13;;
73382;SDS011;61600;48.126;11.542;2023-04-23T09:01:40;4.70;;;2.92;;
73382;SDS011;61600;48.126;11.542;2023-04-23T09:04:06;4.43;;;2.70;;
73382;SDS011;61600;48.126;11.542;2023-04-23T09:11:26;4.25;;;2.72;;
73382;SDS011;61600;48.126;11.542;2023-04-23T09:13:54;4.50;;;2.28;;
73382;SDS011;61600;48.126;11.542;2023-04-23T09:16:21;5.18;;;2.40;;
73382;SDS011;61600;48.126;11.542;2023-04-23T09:18:46;3.60;;;2.10;;
73382;SDS011;61600;48.126;11.542;2023-04-23T09:21:13;5.15;;;2.47;;
73382;SDS011;61600;48.126;11.542;2023-04-23T09:23:39;6.18;;;2.85;;
73382;SDS011;61600;48.126;11.542;2023-04-23T09:26:06;5.03;;;2.15;;
73382;SDS011;61600;48.126;11.542;2023-04-23T09:28:35;4.95;;;2.25;;
73382;SDS011;61600;48.126;11.542;2023-04-23T09:31:04;3.60;;;2.10;;
73382;SDS011;61600;48.126;11.542;2023-04-23T09:33:33;4.97;;;1.95;;
73382;SDS011;61600;48.126;11.542;2023-04-23T09:36:04;3.47;;;2.17;;
73382;SDS011;61600;48.126;11.542;2023-04-23T09:38:42;4.32;;;2.20;;
73382;SDS011;61600;48.126;11.542;2023-04-23T09:41:21;4.55;;;2.35;;
73382;SDS011;61600;48.126;11.542;2023-04-23T09:43:55;3.22;;;1.90;;
73382;SDS011;61600;48.126;11.542;2023-04-23T09:49:17;4.10;;;2.17;;
73382;SDS011;61600;48.126;11.542;2023-04-23T09:51:44;3.50;;;2.08;;
73382;SDS011;61600;48.126;11.542;2023-04-23T09:57:07;2.85;;;1.88;;
73382;SDS011;61600;48.126;11.542;2023-04-23T09:59:33;3.50;;;2.03;;
73382;SDS011;61600;48.126;11.542;2023-04-23T10:02:03;3.33;;;1.90;;
73382;SDS011;61600;48.126;11.542;2023-04-23T10:04:31;2.45;;;1.75;;
73382;SDS011;61600;48.126;11.542;2023-04-23T10:06:58;5.03;;;2.45;;
73382;SDS011;61600;48.126;11.542;2023-04-23T10:09:25;3.60;;;2.50;;
73382;SDS011;61600;48.126;11.542;2023-04-23T10:11:53;3.33;;;2.00;;
73382;SDS011;61600;48.126;11.542;2023-04-23T10:14:20;4.75;;;2.42;;
73382;SDS011;61600;48.126;11.542;2023-04-23T10:19:16;3.80;;;2.10;;
73382;SDS011;61600;48.126;11.542;2023-04-23T10:21:45;3.58;;;1.98;;
73382;SDS011;61600;48.126;11.542;2023-04-23T10:24:13;3.60;;;1.88;;
73382;SDS011;61600;48.126;11.542;2023-04-23T10:26:44;4.07;;;1.60;;
73382;SDS011;61600;48.126;11.542;2023-04-23T10:29:12;4.20;;;1.77;;
73382;SDS011;61600;48.126;11.542;2023-04-23T10:31:43;3.22;;;2.00;;
73382;SDS011;61600;48.126;11.542;2023-04-23T10:34:10;5.45;;;2.17;;
73382;SDS011;61600;48.126;11.542;2023-04-23T10:36:37;4.22;;;1.40;;
73382;SDS011;61600;48.126;11.542;2023-04-23T10:39:03;3.45;;;1.80;;
73382;SDS011;61600;48.126;11.542;2023-04-23T10:41:36;3.78;;;1.60;;
73382;SDS011;61600;48.126;11.542;2023-04-23T10:44:04;2.65;;;1.77;;
73382;SDS011;61600;48.126;11.542;2023-04-23T10:46:32;7.80;;;1.67;;
73382;SDS011;61600;48.126;11.542;2023-04-23T10:49:11;3.53;;;2.05;;
73382;SDS011;61600;48.126;11.542;2023-04-23T10:51:40;3.45;;;1.90;;
73382;SDS011;61600;48.126;11.542;2023-04-23T10:54:12;4.03;;;1.90;;
73382;SDS011;61600;48.126;11.542;2023-04-23T10:56:43;2.72;;;1.67;;
73382;SDS011;61600;48.126;11.542;2023-04-23T10:59:28;2.70;;;1.48;;
73382;SDS011;61600;48.126;11.542;2023-04-23T11:01:56;4.32;;;1.98;;
73382;SDS011;61600;48.126;11.542;2023-04-23T11:04:30;2.55;;;1.40;;
73382;SDS011;61600;48.126;11.542;2023-04-23T11:07:03;2.35;;;1.52;;
73382;SDS011;61600;48.126;11.542;2023-04-23T11:09:39;3.70;;;1.70;;
73382;SDS011;61600;48.126;11.542;2023-04-23T11:12:07;3.08;;;1.70;;
73382;SDS011;61600;48.126;11.542;2023-04-23T11:14:45;2.83;;;1.75;;
73382;SDS011;61600;48.126;11.542;2023-04-23T11:17:15;3.30;;;1.80;;
73382;SDS011;61600;48.126;11.542;2023-04-23T11:22:52;3.15;;;1.92;;
73382;SDS011;61600;48.126;11.542;2023-04-23T11:25:19;3.40;;;2.00;;
73382;SDS011;61600;48.126;11.542;2023-04-23T11:27:46;2.50;;;1.63;;
73382;SDS011;61600;48.126;11.542;2023-04-23T11:30:17;4.50;;;2.38;;
73382;SDS011;61600;48.126;11.542;2023-04-23T11:32:45;4.95;;;2.13;;
73382;SDS011;61600;48.126;11.542;2023-04-23T11:35:13;3.83;;;2.03;;
73382;SDS011;61600;48.126;11.542;2023-04-23T11:37:40;3.30;;;1.73;;
73382;SDS011;61600;48.126;11.542;2023-04-23T11:40:07;2.67;;;1.90;;
73382;SDS011;61600;48.126;11.542;2023-04-23T11:42:41;3.88;;;1.88;;
73382;SDS011;61600;48.126;11.542;2023-04-23T11:45:17;3.50;;;2.05;;
73382;SDS011;61600;48.126;11.542;2023-04-23T11:47:54;3.33;;;1.90;;
73382;SDS011;61600;48.126;11.542;2023-04-23T11:50:22;4.63;;;2.00;;
73382;SDS011;61600;48.126;11.542;2023-04-23T11:52:53;3.10;;;1.90;;
73382;SDS011;61600;48.126;11.542;2023-04-23T11:55:19;3.00;;;1.80;;
73382;SDS011;61600;48.126;11.542;2023-04-23T11:57:47;2.85;;;1.80;;
73382;SDS011;61600;48.126;11.542;2023-04-23T12:00:20;2.28;;;1.42;;
73382;SDS011;61600;48.126;11.542;2023-04-23T12:02:55;4.15;;;2.00;;
73382;SDS011;61600;48.126;11.542;2023-04-23T12:05:26;2.67;;;1.65;;
73382;SDS011;61600;48.126;11.542;2023-04-23T12:08:04;3.33;;;1.67;;
73382;SDS011;61600;48.126;11.542;2023-04-23T12:13:17;2.17;;;1.60;;
73382;SDS011;61600;48.126;11.542;2023-04-23T12:15:49;3.65;;;1.88;;
73382;SDS011;61600;48.126;11.542;2023-04-23T12:18:29;2.95;;;1.98;;
73382;SDS011;61600;48.126;11.542;2023-04-23T12:21:06;3.63;;;2.05;;
73382;SDS011;61600;48.126;11.542;2023-04-23T12:23:34;2.83;;;1.80;;
73382;SDS011;61600;48.126;11.542;2023-04-23T12:26:03;3.67;;;2.13;;
73382;SDS011;61600;48.126;11.542;2023-04-23T12:28:29;3.33;;;1.83;;
73382;SDS011;61600;48.126;11.542;2023-04-23T12:33:28;2.92;;;2.00;;
73382;SDS011;61600;48.126;11.542;2023-04-23T12:35:55;3.20;;;2.10;;
73382;SDS011;61600;48.126;11.542;2023-04-23T12:38:22;3.38;;;1.90;;
73382;SDS011;61600;48.126;11.542;2023-04-23T12:40:54;4.20;;;1.70;;
73382;SDS011;61600;48.126;11.542;2023-04-23T12:43:21;5.30;;;1.80;;
73382;SDS011;61600;48.126;11.542;2023-04-23T12:45:47;3.30;;;1.88;;
73382;SDS011;61600;48.126;11.542;2023-04-23T12:48:13;3.05;;;1.80;;
73382;SDS011;61600;48.126;11.542;2023-04-23T12:50:39;3.35;;;1.73;;
73382;SDS011;61600;48.126;11.542;2023-04-23T12:55:32;4.00;;;1.90;;
73382;SDS011;61600;48.126;11.542;2023-04-23T12:57:58;2.75;;;1.70;;
73382;SDS011;61600;48.126;11.542;2023-04-23T13:00:25;6.07;;;2.08;;
73382;SDS011;61600;48.126;11.542;2023-04-23T13:02:50;5.55;;;2.03;;
73382;SDS011;61600;48.126;11.542;2023-04-23T13:05:16;4.00;;;1.70;;
73382;SDS011;61600;48.126;11.542;2023-04-23T13:07:42;2.92;;;1.88;;
73382;SDS011;61600;48.126;11.542;2023-04-23T13:10:09;3.55;;;1.83;;
73382;SDS011;61600;48.126;11.542;2023-04-23T13:12:35;2.30;;;1.40;;
73382;SDS011;61600;48.126;11.542;2023-04-23T13:15:01;2.88;;;1.70;;
73382;SDS011;61600;48.126;11.542;2023-04-23T13:17:26;3.42;;;1.20;;
73382;SDS011;61600;48.126;11.542;2023-04-23T13:19:53;2.92;;;1.92;;
73382;SDS011;61600;48.126;11.542;2023-04-23T13:22:20;2.67;;;2.00;;
73382;SDS011;61600;48.126;11.542;2023-04-23T13:24:46;3.55;;;2.03;;
73382;SDS011;61600;48.126;11.542;2023-04-23T13:27:13;2.30;;;1.60;;
73382;SDS011;61600;48.126;11.542;2023-04-23T13:29:41;2.95;;;1.90;;
73382;SDS011;61600;48.126;11.542;2023-04-23T13:32:07;5.18;;;1.90;;
73382;SDS011;61600;48.126;11.542;2023-04-23T13:34:33;4.45;;;2.13;;
73382;SDS011;61600;48.126;11.542;2023-04-23T13:37:01;2.60;;;1.38;;
73382;SDS011;61600;48.126;11.542;2023-04-23T13:39:30;3.50;;;1.70;;
73382;SDS011;61600;48.126;11.542;2023-04-23T13:41:56;3.05;;;1.90;;
73382;SDS011;61600;48.126;11.542;2023-04-23T13:44:22;2.70;;;1.88;;
73382;SDS011;61600;48.126;11.542;2023-04-23T13:46:48;4.38;;;2.13;;
73382;SDS011;61600;48.126;11.542;2023-04-23T13:49:14;3.95;;;2.33;;
73382;SDS011;61600;48.126;11.542;2023-04-23T13:51:40;2.90;;;1.80;;
73382;SDS011;61600;48.126;11.542;2023-04-23T13:54:06;3.00;;;1.95;;
73382;SDS011;61600;48.126;11.542;2023-04-23T13:56:31;3.35;;;2.03;;
73382;SDS011;61600;48.126;11.542;2023-04-23T13:58:57;4.47;;;1.80;;
73382;SDS011;61600;48.126;11.542;2023-04-23T14:01:28;2.95;;;1.92;;
73382;SDS011;61600;48.126;11.542;2023-04-23T14:03:54;3.97;;;2.40;;
73382;SDS011;61600;48.126;11.542;2023-04-23T14:06:21;2.83;;;1.80;;
73382;SDS011;61600;48.126;11.542;2023-04-23T14:08:47;4.70;;;2.20;;
73382;SDS011;61600;48.126;11.542;2023-04-23T14:11:13;3.53;;;1.83;;
73382;SDS011;61600;48.126;11.542;2023-04-23T14:13:39;4.20;;;1.98;;
73382;SDS011;61600;48.126;11.542;2023-04-23T14:16:04;2.85;;;1.73;;
73382;SDS011;61600;48.126;11.542;2023-04-23T14:18:30;3.30;;;2.10;;
73382;SDS011;61600;48.126;11.542;2023-04-23T14:20:56;4.43;;;1.98;;
73382;SDS011;61600;48.126;11.542;2023-04-23T14:25:52;3.67;;;1.90;;
73382;SDS011;61600;48.126;11.542;2023-04-23T14:30:55;4.40;;;2.30;;
73382;SDS011;61600;48.126;11.542;2023-04-23T14:33:22;3.08;;;2.08;;
73382;SDS011;61600;48.126;11.542;2023-04-23T14:35:48;4.20;;;2.28;;
73382;SDS011;61600;48.126;11.542;2023-04-23T14:38:14;4.38;;;2.40;;
73382;SDS011;61600;48.126;11.542;2023-04-23T14:40:40;3.20;;;2.30;;
73382;SDS011;61600;48.126;11.542;2023-04-23T14:43:05;3.25;;;2.30;;
73382;SDS011;61600;48.126;11.542;2023-04-23T14:45:31;4.60;;;2.30;;
73382;SDS011;61600;48.126;11.542;2023-04-23T14:47:58;3.38;;;2.35;;
73382;SDS011;61600;48.126;11.542;2023-04-23T14:50:24;4.60;;;2.08;;
73382;SDS011;61600;48.126;11.542;2023-04-23T14:52:50;3.28;;;2.10;;
73382;SDS011;61600;48.126;11.542;2023-04-23T14:55:16;3.38;;;2.10;;
73382;SDS011;61600;48.126;11.542;2023-04-23T14:57:42;3.10;;;2.00;;
73382;SDS011;61600;48.126;11.542;2023-04-23T15:00:08;2.70;;;1.90;;
73382;SDS011;61600;48.126;11.542;2023-04-23T15:02:38;5.35;;;2.30;;
73382;SDS011;61600;48.126;11.542;2023-04-23T15:05:07;3.63;;;2.40;;
73382;SDS011;61600;48.126;11.542;2023-04-23T15:07:37;3.88;;;2.30;;
73382;SDS011;61600;48.126;11.542;2023-04-23T15:10:03;3.30;;;1.92;;
73382;SDS011;61600;48.126;11.542;2023-04-23T15:15:13;3.40;;;2.00;;
73382;SDS011;61600;48.126;11.542;2023-04-23T15:17:44;3.75;;;2.10;;
73382;SDS011;61600;48.126;11.542;2023-04-23T15:20:10;5.60;;;2.40;;